sensor_id;sensor_type;location;lat;lon;timestamp;temperature;humidity
42141;DHT22;27809;51.864;5.646;2023-02-26T00:00:37;0.10;99.90
42141;DHT22;27809;51.864;5.646;2023-02-26T00:03:03;0.10;99.90
42141;DHT22;27809;51.864;5.646;2023-02-26T00:05:29;0.00;99.90
42141;DHT22;27809;51.864;5.646;2023-02-26T00:07:54;0.10;99.90
42141;DHT22;27809;51.864;5.646;2023-02-26T00:10:20;0.20;99.90
42141;DHT22;27809;51.864;5.646;2023-02-26T00:12:46;0.20;99.90
42141;DHT22;27809;51.864;5.646;2023-02-26T00:15:13;0.30;99.90
42141;DHT22;27809;51.864;5.646;2023-02-26T00:17:44;0.20;99.90
42141;DHT22;27809;51.864;5.646;2023-02-26T00:20:13;0.20;99.90
42141;DHT22;27809;51.864;5.646;2023-02-26T00:22:41;0.20;99.90
42141;DHT22;27809;51.864;5.646;2023-02-26T00:25:08;0.10;99.90
42141;DHT22;27809;51.864;5.646;2023-02-26T00:27:34;-0.20;99.90
42141;DHT22;27809;51.864;5.646;2023-02-26T00:30:00;-0.30;99.90
42141;DHT22;27809;51.864;5.646;2023-02-26T00:32:26;-0.40;99.90
42141;DHT22;27809;51.864;5.646;2023-02-26T00:34:52;-0.50;99.90
42141;DHT22;27809;51.864;5.646;2023-02-26T00:40:12;-0.60;99.90
42141;DHT22;27809;51.864;5.646;2023-02-26T00:42:40;-0.70;99.90
42141;DHT22;27809;51.864;5.646;2023-02-26T00:45:06;-0.80;99.90
42141;DHT22;27809;51.864;5.646;2023-02-26T00:50:32;-0.70;99.90
42141;DHT22;27809;51.864;5.646;2023-02-26T00:53:22;-0.90;99.90
42141;DHT22;27809;51.864;5.646;2023-02-26T00:55:49;-0.90;99.90
42141;DHT22;27809;51.864;5.646;2023-02-26T00:58:15;-0.80;99.90
42141;DHT22;27809;51.864;5.646;2023-02-26T01:00:40;-0.90;99.90
42141;DHT22;27809;51.864;5.646;2023-02-26T01:03:06;-0.90;99.90
42141;DHT22;27809;51.864;5.646;2023-02-26T01:05:32;-0.90;99.90
42141;DHT22;27809;51.864;5.646;2023-02-26T01:08:04;-0.80;99.90
42141;DHT22;27809;51.864;5.646;2023-02-26T01:10:33;-0.80;99.90
42141;DHT22;27809;51.864;5.646;2023-02-26T01:12:59;-0.90;99.90
42141;DHT22;27809;51.864;5.646;2023-02-26T01:15:24;-0.90;99.90
42141;DHT22;27809;51.864;5.646;2023-02-26T01:18:08;-0.90;99.90
42141;DHT22;27809;51.864;5.646;2023-02-26T01:20:44;-0.90;99.90
42141;DHT22;27809;51.864;5.646;2023-02-26T01:23:17;-0.90;99.90
42141;DHT22;27809;51.864;5.646;2023-02-26T01:25:56;-0.90;99.90
42141;DHT22;27809;51.864;5.646;2023-02-26T01:28:23;-1.00;99.90
42141;DHT22;27809;51.864;5.646;2023-02-26T01:30:51;-1.10;99.90
42141;DHT22;27809;51.864;5.646;2023-02-26T01:35:57;-1.20;99.90
42141;DHT22;27809;51.864;5.646;2023-02-26T01:41:34;-0.80;99.90
42141;DHT22;27809;51.864;5.646;2023-02-26T01:44:08;-0.70;99.90
42141;DHT22;27809;51.864;5.646;2023-02-26T01:46:52;-0.80;99.90
42141;DHT22;27809;51.864;5.646;2023-02-26T01:49:20;-0.80;99.90
42141;DHT22;27809;51.864;5.646;2023-02-26T01:51:50;-0.80;99.90
42141;DHT22;27809;51.864;5.646;2023-02-26T01:54:19;-0.80;99.90
42141;DHT22;27809;51.864;5.646;2023-02-26T01:56:47;-0.90;99.90
42141;DHT22;27809;51.864;5.646;2023-02-26T01:59:15;-1.00;99.90
42141;DHT22;27809;51.864;5.646;2023-02-26T02:01:41;-1.10;99.90
42141;DHT22;27809;51.864;5.646;2023-02-26T02:04:11;-1.10;99.90
42141;DHT22;27809;51.864;5.646;2023-02-26T02:06:37;-1.10;99.90
42141;DHT22;27809;51.864;5.646;2023-02-26T02:09:07;-1.10;99.90
42141;DHT22;27809;51.864;5.646;2023-02-26T02:11:33;-1.20;99.90
42141;DHT22;27809;51.864;5.646;2023-02-26T02:14:11;-1.30;99.90
42141;DHT22;27809;51.864;5.646;2023-02-26T02:17:07;-1.20;99.90
42141;DHT22;27809;51.864;5.646;2023-02-26T02:22:50;-1.30;99.90
42141;DHT22;27809;51.864;5.646;2023-02-26T02:33:27;-1.40;99.90
42141;DHT22;27809;51.864;5.646;2023-02-26T02:35:58;-1.40;99.90
42141;DHT22;27809;51.864;5.646;2023-02-26T02:38:32;-1.40;99.90
42141;DHT22;27809;51.864;5.646;2023-02-26T02:41:11;-1.50;99.90
42141;DHT22;27809;51.864;5.646;2023-02-26T02:43:40;-1.40;99.90
42141;DHT22;27809;51.864;5.646;2023-02-26T02:46:12;-1.50;99.90
42141;DHT22;27809;51.864;5.646;2023-02-26T02:48:48;-1.40;99.90
42141;DHT22;27809;51.864;5.646;2023-02-26T02:51:25;-1.40;99.90
42141;DHT22;27809;51.864;5.646;2023-02-26T02:56:46;-1.50;99.90
42141;DHT22;27809;51.864;5.646;2023-02-26T02:59:24;-1.50;99.90
42141;DHT22;27809;51.864;5.646;2023-02-26T03:02:08;-1.50;99.90
42141;DHT22;27809;51.864;5.646;2023-02-26T03:04:35;-1.40;99.90
42141;DHT22;27809;51.864;5.646;2023-02-26T03:07:01;-1.40;99.90
42141;DHT22;27809;51.864;5.646;2023-02-26T03:09:26;-1.50;99.90
42141;DHT22;27809;51.864;5.646;2023-02-26T03:11:52;-1.60;99.90
42141;DHT22;27809;51.864;5.646;2023-02-26T03:14:17;-1.70;99.90
42141;DHT22;27809;51.864;5.646;2023-02-26T03:16:59;-1.60;99.90
42141;DHT22;27809;51.864;5.646;2023-02-26T03:19:48;-1.60;99.90
42141;DHT22;27809;51.864;5.646;2023-02-26T03:25:09;-1.50;99.90
42141;DHT22;27809;51.864;5.646;2023-02-26T03:33:02;-1.40;99.90
42141;DHT22;27809;51.864;5.646;2023-02-26T03:35:37;-1.50;99.90
42141;DHT22;27809;51.864;5.646;2023-02-26T03:38:20;-1.50;99.90
42141;DHT22;27809;51.864;5.646;2023-02-26T03:40:54;-1.60;99.90
42141;DHT22;27809;51.864;5.646;2023-02-26T03:45:53;-1.70;99.90
42141;DHT22;27809;51.864;5.646;2023-02-26T03:48:24;-1.70;99.90
42141;DHT22;27809;51.864;5.646;2023-02-26T03:50:53;-1.60;99.90
42141;DHT22;27809;51.864;5.646;2023-02-26T03:53:24;-1.60;99.90
42141;DHT22;27809;51.864;5.646;2023-02-26T03:55:59;-1.60;99.90
42141;DHT22;27809;51.864;5.646;2023-02-26T03:58:26;-1.60;99.90
42141;DHT22;27809;51.864;5.646;2023-02-26T04:00:58;-1.70;99.90
42141;DHT22;27809;51.864;5.646;2023-02-26T04:06:06;-1.70;99.90
42141;DHT22;27809;51.864;5.646;2023-02-26T04:08:32;-1.80;99.90
42141;DHT22;27809;51.864;5.646;2023-02-26T04:11:03;-1.80;99.90
42141;DHT22;27809;51.864;5.646;2023-02-26T04:13:30;-1.90;99.90
42141;DHT22;27809;51.864;5.646;2023-02-26T04:15:56;-1.90;99.90
42141;DHT22;27809;51.864;5.646;2023-02-26T04:18:21;-1.90;99.90
42141;DHT22;27809;51.864;5.646;2023-02-26T04:20:47;-2.00;99.90
42141;DHT22;27809;51.864;5.646;2023-02-26T04:23:12;-2.00;99.90
42141;DHT22;27809;51.864;5.646;2023-02-26T04:25:38;-2.00;99.90
42141;DHT22;27809;51.864;5.646;2023-02-26T04:28:03;-2.00;99.90
42141;DHT22;27809;51.864;5.646;2023-02-26T04:30:29;-2.10;99.90
42141;DHT22;27809;51.864;5.646;2023-02-26T04:32:55;-2.20;99.90
42141;DHT22;27809;51.864;5.646;2023-02-26T04:35:20;-2.30;99.90
42141;DHT22;27809;51.864;5.646;2023-02-26T04:37:46;-2.20;99.90
42141;DHT22;27809;51.864;5.646;2023-02-26T04:40:12;-2.10;99.90
42141;DHT22;27809;51.864;5.646;2023-02-26T04:42:38;-2.20;99.90
42141;DHT22;27809;51.864;5.646;2023-02-26T04:45:03;-2.30;99.90
42141;DHT22;27809;51.864;5.646;2023-02-26T04:47:29;-2.20;99.90
42141;DHT22;27809;51.864;5.646;2023-02-26T04:49:55;-2.10;99.90
42141;DHT22;27809;51.864;5.646;2023-02-26T04:52:20;-2.30;99.90
42141;DHT22;27809;51.864;5.646;2023-02-26T04:54:46;-2.30;99.90
42141;DHT22;27809;51.864;5.646;2023-02-26T04:57:11;-2.30;99.90
42141;DHT22;27809;51.864;5.646;2023-02-26T04:59:37;-2.40;99.90
42141;DHT22;27809;51.864;5.646;2023-02-26T05:02:05;-2.50;99.90
42141;DHT22;27809;51.864;5.646;2023-02-26T05:04:31;-2.40;99.90
42141;DHT22;27809;51.864;5.646;2023-02-26T05:06:56;-2.30;99.90
42141;DHT22;27809;51.864;5.646;2023-02-26T05:09:22;-2.40;99.90
42141;DHT22;27809;51.864;5.646;2023-02-26T05:11:48;-2.30;99.90
42141;DHT22;27809;51.864;5.646;2023-02-26T05:14:15;-2.20;99.90
42141;DHT22;27809;51.864;5.646;2023-02-26T05:16:41;-2.40;99.90
42141;DHT22;27809;51.864;5.646;2023-02-26T05:19:06;-2.30;99.90
42141;DHT22;27809;51.864;5.646;2023-02-26T05:21:32;-2.40;99.90
42141;DHT22;27809;51.864;5.646;2023-02-26T05:23:58;-2.30;99.90
42141;DHT22;27809;51.864;5.646;2023-02-26T05:26:24;-2.10;99.90
42141;DHT22;27809;51.864;5.646;2023-02-26T05:28:49;-2.20;99.90
42141;DHT22;27809;51.864;5.646;2023-02-26T05:31:15;-2.20;99.90
42141;DHT22;27809;51.864;5.646;2023-02-26T05:33:40;-2.10;99.90
42141;DHT22;27809;51.864;5.646;2023-02-26T05:36:07;-2.00;99.90
42141;DHT22;27809;51.864;5.646;2023-02-26T05:38:32;-1.90;99.90
42141;DHT22;27809;51.864;5.646;2023-02-26T05:40:58;-1.80;99.90
42141;DHT22;27809;51.864;5.646;2023-02-26T05:43:24;-1.80;99.90
42141;DHT22;27809;51.864;5.646;2023-02-26T05:45:51;-1.80;99.90
42141;DHT22;27809;51.864;5.646;2023-02-26T05:48:16;-1.80;99.90
42141;DHT22;27809;51.864;5.646;2023-02-26T05:50:42;-1.80;99.90
42141;DHT22;27809;51.864;5.646;2023-02-26T05:53:07;-1.90;99.90
42141;DHT22;27809;51.864;5.646;2023-02-26T05:55:33;-1.90;99.90
42141;DHT22;27809;51.864;5.646;2023-02-26T05:57:59;-1.90;99.90
42141;DHT22;27809;51.864;5.646;2023-02-26T06:00:25;-1.80;99.90
42141;DHT22;27809;51.864;5.646;2023-02-26T06:02:50;-1.90;99.90
42141;DHT22;27809;51.864;5.646;2023-02-26T06:05:16;-1.80;99.90
42141;DHT22;27809;51.864;5.646;2023-02-26T06:07:42;-1.90;99.80
42141;DHT22;27809;51.864;5.646;2023-02-26T06:10:08;-1.80;99.90
42141;DHT22;27809;51.864;5.646;2023-02-26T06:12:34;-1.90;99.70
42141;DHT22;27809;51.864;5.646;2023-02-26T06:15:00;-1.90;99.90
42141;DHT22;27809;51.864;5.646;2023-02-26T06:17:26;-1.80;99.90
42141;DHT22;27809;51.864;5.646;2023-02-26T06:19:52;-1.80;99.50
42141;DHT22;27809;51.864;5.646;2023-02-26T06:22:18;-1.90;99.90
42141;DHT22;27809;51.864;5.646;2023-02-26T06:24:44;-1.80;99.90
42141;DHT22;27809;51.864;5.646;2023-02-26T06:27:09;-1.90;99.80
42141;DHT22;27809;51.864;5.646;2023-02-26T06:29:35;-1.80;99.90
42141;DHT22;27809;51.864;5.646;2023-02-26T06:32:02;-1.80;99.80
42141;DHT22;27809;51.864;5.646;2023-02-26T06:34:28;-1.80;99.90
42141;DHT22;27809;51.864;5.646;2023-02-26T06:36:53;-1.70;99.90
42141;DHT22;27809;51.864;5.646;2023-02-26T06:39:19;-1.70;99.40
42141;DHT22;27809;51.864;5.646;2023-02-26T06:41:44;-1.70;99.50
42141;DHT22;27809;51.864;5.646;2023-02-26T06:44:10;-1.70;99.60
42141;DHT22;27809;51.864;5.646;2023-02-26T06:46:36;-1.60;99.60
42141;DHT22;27809;51.864;5.646;2023-02-26T06:49:02;-1.60;99.40
42141;DHT22;27809;51.864;5.646;2023-02-26T06:51:27;-1.60;99.50
42141;DHT22;27809;51.864;5.646;2023-02-26T06:53:53;-1.60;99.30
42141;DHT22;27809;51.864;5.646;2023-02-26T06:56:19;-1.60;99.10
42141;DHT22;27809;51.864;5.646;2023-02-26T06:58:44;-1.60;99.60
42141;DHT22;27809;51.864;5.646;2023-02-26T07:01:10;-1.60;99.90
42141;DHT22;27809;51.864;5.646;2023-02-26T07:03:35;-1.40;99.00
42141;DHT22;27809;51.864;5.646;2023-02-26T07:06:01;-1.50;99.10
42141;DHT22;27809;51.864;5.646;2023-02-26T07:08:26;-1.40;99.40
42141;DHT22;27809;51.864;5.646;2023-02-26T07:10:52;-1.30;98.80
42141;DHT22;27809;51.864;5.646;2023-02-26T07:13:18;-1.20;98.50
42141;DHT22;27809;51.864;5.646;2023-02-26T07:15:43;-1.20;98.70
42141;DHT22;27809;51.864;5.646;2023-02-26T07:18:09;-1.20;98.30
42141;DHT22;27809;51.864;5.646;2023-02-26T07:20:34;-1.10;98.10
42141;DHT22;27809;51.864;5.646;2023-02-26T07:23:00;-1.00;97.50
42141;DHT22;27809;51.864;5.646;2023-02-26T07:25:27;-0.90;97.30
42141;DHT22;27809;51.864;5.646;2023-02-26T07:27:52;-0.90;97.40
42141;DHT22;27809;51.864;5.646;2023-02-26T07:30:19;-0.80;97.60
42141;DHT22;27809;51.864;5.646;2023-02-26T07:32:44;-0.80;96.90
42141;DHT22;27809;51.864;5.646;2023-02-26T07:35:10;-0.70;96.20
42141;DHT22;27809;51.864;5.646;2023-02-26T07:37:36;-0.70;95.60
42141;DHT22;27809;51.864;5.646;2023-02-26T07:40:01;-0.40;99.90
42141;DHT22;27809;51.864;5.646;2023-02-26T07:42:27;1.00;91.40
42141;DHT22;27809;51.864;5.646;2023-02-26T07:44:53;0.20;89.30
42141;DHT22;27809;51.864;5.646;2023-02-26T07:47:18;-0.10;91.80
42141;DHT22;27809;51.864;5.646;2023-02-26T07:49:44;-0.20;93.60
42141;DHT22;27809;51.864;5.646;2023-02-26T07:52:09;-0.10;93.70
42141;DHT22;27809;51.864;5.646;2023-02-26T07:54:35;-0.10;94.70
42141;DHT22;27809;51.864;5.646;2023-02-26T07:57:01;-0.10;94.60
42141;DHT22;27809;51.864;5.646;2023-02-26T07:59:27;0.00;94.20
42141;DHT22;27809;51.864;5.646;2023-02-26T08:01:53;0.10;94.00
42141;DHT22;27809;51.864;5.646;2023-02-26T08:04:18;0.20;92.40
42141;DHT22;27809;51.864;5.646;2023-02-26T08:06:44;0.40;93.40
42141;DHT22;27809;51.864;5.646;2023-02-26T08:09:10;0.90;92.00
42141;DHT22;27809;51.864;5.646;2023-02-26T08:11:35;1.00;90.10
42141;DHT22;27809;51.864;5.646;2023-02-26T08:14:05;3.10;99.90
42141;DHT22;27809;51.864;5.646;2023-02-26T08:16:31;2.70;68.40
42141;DHT22;27809;51.864;5.646;2023-02-26T08:18:56;2.70;70.90
42141;DHT22;27809;51.864;5.646;2023-02-26T08:21:22;2.90;59.80
42141;DHT22;27809;51.864;5.646;2023-02-26T08:23:48;2.30;62.60
42141;DHT22;27809;51.864;5.646;2023-02-26T08:26:14;2.70;64.10
42141;DHT22;27809;51.864;5.646;2023-02-26T08:28:40;2.70;60.20
42141;DHT22;27809;51.864;5.646;2023-02-26T08:31:05;2.00;63.20
42141;DHT22;27809;51.864;5.646;2023-02-26T08:33:31;2.70;66.20
42141;DHT22;27809;51.864;5.646;2023-02-26T08:35:58;14.00;45.30
42141;DHT22;27809;51.864;5.646;2023-02-26T08:38:27;7.50;12.70
42141;DHT22;27809;51.864;5.646;2023-02-26T08:40:52;4.70;22.50
42141;DHT22;27809;51.864;5.646;2023-02-26T08:43:19;5.30;29.30
42141;DHT22;27809;51.864;5.646;2023-02-26T08:45:45;6.80;21.80
42141;DHT22;27809;51.864;5.646;2023-02-26T08:48:11;8.30;17.80
42141;DHT22;27809;51.864;5.646;2023-02-26T08:50:36;9.50;15.00
42141;DHT22;27809;51.864;5.646;2023-02-26T08:53:03;10.10;11.40
42141;DHT22;27809;51.864;5.646;2023-02-26T08:55:28;9.90;12.00
42141;DHT22;27809;51.864;5.646;2023-02-26T08:57:54;10.20;10.30
42141;DHT22;27809;51.864;5.646;2023-02-26T09:00:19;9.30;10.80
42141;DHT22;27809;51.864;5.646;2023-02-26T09:02:45;9.70;10.00
42141;DHT22;27809;51.864;5.646;2023-02-26T09:05:11;10.40;8.20
42141;DHT22;27809;51.864;5.646;2023-02-26T09:07:37;10.70;8.70
42141;DHT22;27809;51.864;5.646;2023-02-26T09:10:04;10.60;7.70
42141;DHT22;27809;51.864;5.646;2023-02-26T09:12:30;10.80;7.40
42141;DHT22;27809;51.864;5.646;2023-02-26T09:14:56;10.00;7.30
42141;DHT22;27809;51.864;5.646;2023-02-26T09:17:24;10.40;7.40
42141;DHT22;27809;51.864;5.646;2023-02-26T09:19:50;11.10;5.30
42141;DHT22;27809;51.864;5.646;2023-02-26T09:22:16;10.50;7.20
42141;DHT22;27809;51.864;5.646;2023-02-26T09:24:41;11.50;5.70
42141;DHT22;27809;51.864;5.646;2023-02-26T09:27:07;16.20;27.00
42141;DHT22;27809;51.864;5.646;2023-02-26T09:29:33;14.30;1.00
42141;DHT22;27809;51.864;5.646;2023-02-26T09:31:58;12.00;1.90
42141;DHT22;27809;51.864;5.646;2023-02-26T09:34:24;12.20;1.30
42141;DHT22;27809;51.864;5.646;2023-02-26T09:36:49;12.70;1.00
42141;DHT22;27809;51.864;5.646;2023-02-26T09:39:15;13.00;1.00
42141;DHT22;27809;51.864;5.646;2023-02-26T09:41:45;12.10;1.00
42141;DHT22;27809;51.864;5.646;2023-02-26T09:44:16;12.90;1.00
42141;DHT22;27809;51.864;5.646;2023-02-26T09:46:49;13.00;1.00
42141;DHT22;27809;51.864;5.646;2023-02-26T09:52:04;12.60;1.00
42141;DHT22;27809;51.864;5.646;2023-02-26T09:54:38;12.70;1.00
42141;DHT22;27809;51.864;5.646;2023-02-26T09:57:08;12.90;1.00
42141;DHT22;27809;51.864;5.646;2023-02-26T09:59:35;12.60;1.00
42141;DHT22;27809;51.864;5.646;2023-02-26T10:02:18;12.50;1.00
42141;DHT22;27809;51.864;5.646;2023-02-26T10:04:57;12.50;1.00
42141;DHT22;27809;51.864;5.646;2023-02-26T10:07:35;12.90;1.00
42141;DHT22;27809;51.864;5.646;2023-02-26T10:11:09;12.80;1.00
42141;DHT22;27809;51.864;5.646;2023-02-26T10:13:41;11.80;1.00
42141;DHT22;27809;51.864;5.646;2023-02-26T10:16:10;12.90;1.00
42141;DHT22;27809;51.864;5.646;2023-02-26T10:18:41;13.30;1.00
42141;DHT22;27809;51.864;5.646;2023-02-26T10:21:14;13.20;1.00
42141;DHT22;27809;51.864;5.646;2023-02-26T10:23:56;12.80;1.00
42141;DHT22;27809;51.864;5.646;2023-02-26T10:26:35;12.70;1.00
42141;DHT22;27809;51.864;5.646;2023-02-26T10:35:03;11.00;1.00
42141;DHT22;27809;51.864;5.646;2023-02-26T10:37:52;11.10;1.00
42141;DHT22;27809;51.864;5.646;2023-02-26T10:40:27;11.60;1.00
42141;DHT22;27809;51.864;5.646;2023-02-26T10:42:57;12.40;1.00
42141;DHT22;27809;51.864;5.646;2023-02-26T10:48:21;11.40;1.00
42141;DHT22;27809;51.864;5.646;2023-02-26T10:50:53;11.70;1.00
42141;DHT22;27809;51.864;5.646;2023-02-26T10:53:21;11.20;1.00
42141;DHT22;27809;51.864;5.646;2023-02-26T10:58:37;12.10;1.00
42141;DHT22;27809;51.864;5.646;2023-02-26T11:01:12;11.50;1.00
42141;DHT22;27809;51.864;5.646;2023-02-26T11:03:42;12.50;1.00
42141;DHT22;27809;51.864;5.646;2023-02-26T11:06:09;13.40;1.00
42141;DHT22;27809;51.864;5.646;2023-02-26T11:08:42;13.00;1.00
42141;DHT22;27809;51.864;5.646;2023-02-26T11:11:09;13.50;1.00
42141;DHT22;27809;51.864;5.646;2023-02-26T11:13:37;13.60;1.00
42141;DHT22;27809;51.864;5.646;2023-02-26T11:16:08;11.70;1.00
42141;DHT22;27809;51.864;5.646;2023-02-26T11:18:40;11.40;1.00
42141;DHT22;27809;51.864;5.646;2023-02-26T11:21:07;10.90;1.00
42141;DHT22;27809;51.864;5.646;2023-02-26T11:23:33;12.30;1.00
42141;DHT22;27809;51.864;5.646;2023-02-26T11:26:04;12.40;1.00
42141;DHT22;27809;51.864;5.646;2023-02-26T11:28:46;10.80;1.00
42141;DHT22;27809;51.864;5.646;2023-02-26T11:31:17;10.80;1.00
42141;DHT22;27809;51.864;5.646;2023-02-26T11:33:47;11.50;1.00
42141;DHT22;27809;51.864;5.646;2023-02-26T11:36:17;11.70;1.00
42141;DHT22;27809;51.864;5.646;2023-02-26T11:38:55;10.30;1.00
42141;DHT22;27809;51.864;5.646;2023-02-26T11:41:22;10.50;1.00
42141;DHT22;27809;51.864;5.646;2023-02-26T11:44:04;11.40;1.00
42141;DHT22;27809;51.864;5.646;2023-02-26T11:46:31;13.60;3.80
42141;DHT22;27809;51.864;5.646;2023-02-26T11:49:02;11.40;1.00
42141;DHT22;27809;51.864;5.646;2023-02-26T11:51:28;9.60;1.10
42141;DHT22;27809;51.864;5.646;2023-02-26T11:53:56;8.70;2.90
42141;DHT22;27809;51.864;5.646;2023-02-26T11:56:43;8.50;2.50
42141;DHT22;27809;51.864;5.646;2023-02-26T11:59:19;8.40;2.10
42141;DHT22;27809;51.864;5.646;2023-02-26T12:01:45;8.40;3.20
42141;DHT22;27809;51.864;5.646;2023-02-26T12:04:13;9.30;1.00
42141;DHT22;27809;51.864;5.646;2023-02-26T12:06:39;9.30;3.40
42141;DHT22;27809;51.864;5.646;2023-02-26T12:09:10;10.50;1.00
42141;DHT22;27809;51.864;5.646;2023-02-26T12:11:45;9.60;2.00
42141;DHT22;27809;51.864;5.646;2023-02-26T12:37:15;9.10;2.50
42141;DHT22;27809;51.864;5.646;2023-02-26T12:42:29;11.00;1.00
42141;DHT22;27809;51.864;5.646;2023-02-26T12:50:20;12.20;1.00
42141;DHT22;27809;51.864;5.646;2023-02-26T12:55:59;11.40;1.00
42141;DHT22;27809;51.864;5.646;2023-02-26T12:58:49;10.90;1.00
42141;DHT22;27809;51.864;5.646;2023-02-26T13:06:50;13.00;1.00
42141;DHT22;27809;51.864;5.646;2023-02-26T13:09:51;12.30;1.00
42141;DHT22;27809;51.864;5.646;2023-02-26T13:12:30;13.30;1.00
42141;DHT22;27809;51.864;5.646;2023-02-26T13:18:15;13.10;1.00
42141;DHT22;27809;51.864;5.646;2023-02-26T13:24:06;12.60;1.00
42141;DHT22;27809;51.864;5.646;2023-02-26T13:26:33;11.50;1.00
42141;DHT22;27809;51.864;5.646;2023-02-26T13:29:37;11.80;1.00
42141;DHT22;27809;51.864;5.646;2023-02-26T13:34:48;11.70;1.00
42141;DHT22;27809;51.864;5.646;2023-02-26T13:37:31;11.80;1.00
42141;DHT22;27809;51.864;5.646;2023-02-26T13:45:33;9.70;1.00
42141;DHT22;27809;51.864;5.646;2023-02-26T13:48:26;8.70;3.70
42141;DHT22;27809;51.864;5.646;2023-02-26T13:51:28;10.40;1.00
42141;DHT22;27809;51.864;5.646;2023-02-26T13:54:02;11.90;1.00
42141;DHT22;27809;51.864;5.646;2023-02-26T14:01:34;10.30;1.00
42141;DHT22;27809;51.864;5.646;2023-02-26T14:06:58;8.70;1.00
42141;DHT22;27809;51.864;5.646;2023-02-26T14:11:59;9.70;1.00
42141;DHT22;27809;51.864;5.646;2023-02-26T14:14:39;10.10;1.00
42141;DHT22;27809;51.864;5.646;2023-02-26T14:20:13;10.70;1.00
42141;DHT22;27809;51.864;5.646;2023-02-26T14:22:40;10.00;1.00
42141;DHT22;27809;51.864;5.646;2023-02-26T14:25:14;11.50;1.00
42141;DHT22;27809;51.864;5.646;2023-02-26T14:27:43;11.50;1.00
42141;DHT22;27809;51.864;5.646;2023-02-26T14:35:30;10.30;1.00
42141;DHT22;27809;51.864;5.646;2023-02-26T14:38:07;10.30;1.00
42141;DHT22;27809;51.864;5.646;2023-02-26T14:40:42;9.30;1.00
42141;DHT22;27809;51.864;5.646;2023-02-26T14:43:30;8.30;1.00
42141;DHT22;27809;51.864;5.646;2023-02-26T14:46:01;6.90;3.30
42141;DHT22;27809;51.864;5.646;2023-02-26T14:48:28;7.70;2.90
42141;DHT22;27809;51.864;5.646;2023-02-26T15:04:39;7.10;5.50
42141;DHT22;27809;51.864;5.646;2023-02-26T15:15:27;5.80;9.20
42141;DHT22;27809;51.864;5.646;2023-02-26T15:18:18;6.00;8.70
42141;DHT22;27809;51.864;5.646;2023-02-26T15:23:42;6.30;7.50
42141;DHT22;27809;51.864;5.646;2023-02-26T15:26:16;6.00;8.30
42141;DHT22;27809;51.864;5.646;2023-02-26T15:28:43;5.40;11.10
42141;DHT22;27809;51.864;5.646;2023-02-26T15:31:10;5.30;10.00
42141;DHT22;27809;51.864;5.646;2023-02-26T15:33:36;5.30;12.50
42141;DHT22;27809;51.864;5.646;2023-02-26T15:36:08;5.50;10.70
42141;DHT22;27809;51.864;5.646;2023-02-26T15:38:46;5.60;9.50
42141;DHT22;27809;51.864;5.646;2023-02-26T15:41:12;5.40;9.90
42141;DHT22;27809;51.864;5.646;2023-02-26T15:43:41;5.60;9.10
42141;DHT22;27809;51.864;5.646;2023-02-26T15:46:09;5.60;9.60
42141;DHT22;27809;51.864;5.646;2023-02-26T15:48:36;5.60;9.50
42141;DHT22;27809;51.864;5.646;2023-02-26T15:51:05;5.60;10.60
42141;DHT22;27809;51.864;5.646;2023-02-26T15:56:03;5.30;10.60
42141;DHT22;27809;51.864;5.646;2023-02-26T15:58:35;5.30;10.00
42141;DHT22;27809;51.864;5.646;2023-02-26T16:01:04;5.10;13.70
42141;DHT22;27809;51.864;5.646;2023-02-26T16:03:34;5.20;11.30
42141;DHT22;27809;51.864;5.646;2023-02-26T16:06:01;5.20;11.40
42141;DHT22;27809;51.864;5.646;2023-02-26T16:08:27;5.30;11.20
42141;DHT22;27809;51.864;5.646;2023-02-26T16:10:55;7.90;7.70
42141;DHT22;27809;51.864;5.646;2023-02-26T16:13:28;6.40;10.20
42141;DHT22;27809;51.864;5.646;2023-02-26T16:16:01;6.70;11.20
42141;DHT22;27809;51.864;5.646;2023-02-26T16:18:29;5.30;11.80
42141;DHT22;27809;51.864;5.646;2023-02-26T16:20:56;4.80;14.30
42141;DHT22;27809;51.864;5.646;2023-02-26T16:23:31;4.70;14.40
42141;DHT22;27809;51.864;5.646;2023-02-26T16:26:01;4.60;18.80
42141;DHT22;27809;51.864;5.646;2023-02-26T16:28:35;4.50;17.00
42141;DHT22;27809;51.864;5.646;2023-02-26T16:31:21;4.50;16.90
42141;DHT22;27809;51.864;5.646;2023-02-26T16:34:02;4.50;17.40
42141;DHT22;27809;51.864;5.646;2023-02-26T16:36:36;4.30;18.90
42141;DHT22;27809;51.864;5.646;2023-02-26T16:41:34;4.10;20.50
42141;DHT22;27809;51.864;5.646;2023-02-26T16:44:03;4.10;20.30
42141;DHT22;27809;51.864;5.646;2023-02-26T16:46:49;4.10;18.90
42141;DHT22;27809;51.864;5.646;2023-02-26T16:49:26;4.20;17.90
42141;DHT22;27809;51.864;5.646;2023-02-26T16:51:55;4.20;18.60
42141;DHT22;27809;51.864;5.646;2023-02-26T16:54:30;4.00;19.40
42141;DHT22;27809;51.864;5.646;2023-02-26T16:57:05;3.90;20.80
42141;DHT22;27809;51.864;5.646;2023-02-26T16:59:34;3.90;21.00
42141;DHT22;27809;51.864;5.646;2023-02-26T17:02:20;3.80;22.10
42141;DHT22;27809;51.864;5.646;2023-02-26T17:04:56;3.70;21.60
42141;DHT22;27809;51.864;5.646;2023-02-26T17:09:52;3.50;25.40
42141;DHT22;27809;51.864;5.646;2023-02-26T17:12:37;3.50;25.30
42141;DHT22;27809;51.864;5.646;2023-02-26T17:15:57;3.60;25.60
42141;DHT22;27809;51.864;5.646;2023-02-26T17:17:56;3.60;24.70
42141;DHT22;27809;51.864;5.646;2023-02-26T17:20:24;3.60;25.00
42141;DHT22;27809;51.864;5.646;2023-02-26T17:22:50;3.40;26.10
42141;DHT22;27809;51.864;5.646;2023-02-26T17:25:16;3.00;29.60
42141;DHT22;27809;51.864;5.646;2023-02-26T17:27:44;2.90;36.50
42141;DHT22;27809;51.864;5.646;2023-02-26T17:30:16;2.70;38.60
42141;DHT22;27809;51.864;5.646;2023-02-26T17:32:43;2.30;40.60
42141;DHT22;27809;51.864;5.646;2023-02-26T17:35:12;2.40;41.40
42141;DHT22;27809;51.864;5.646;2023-02-26T17:37:38;2.30;42.40
42141;DHT22;27809;51.864;5.646;2023-02-26T17:40:13;2.00;43.40
42141;DHT22;27809;51.864;5.646;2023-02-26T17:42:40;2.10;47.30
42141;DHT22;27809;51.864;5.646;2023-02-26T17:45:06;2.00;46.00
42141;DHT22;27809;51.864;5.646;2023-02-26T17:47:33;2.10;42.70
42141;DHT22;27809;51.864;5.646;2023-02-26T17:49:59;1.70;45.80
42141;DHT22;27809;51.864;5.646;2023-02-26T17:52:24;1.70;51.00
42141;DHT22;27809;51.864;5.646;2023-02-26T17:54:50;1.90;50.00
42141;DHT22;27809;51.864;5.646;2023-02-26T17:57:19;1.90;48.60
42141;DHT22;27809;51.864;5.646;2023-02-26T17:59:45;2.00;46.80
42141;DHT22;27809;51.864;5.646;2023-02-26T18:02:20;1.80;48.40
42141;DHT22;27809;51.864;5.646;2023-02-26T18:04:46;1.70;50.50
42141;DHT22;27809;51.864;5.646;2023-02-26T18:07:14;1.90;50.60
42141;DHT22;27809;51.864;5.646;2023-02-26T18:09:41;1.90;49.90
42141;DHT22;27809;51.864;5.646;2023-02-26T18:12:12;1.50;50.80
42141;DHT22;27809;51.864;5.646;2023-02-26T18:14:38;1.40;59.70
42141;DHT22;27809;51.864;5.646;2023-02-26T18:17:03;1.50;61.20
42141;DHT22;27809;51.864;5.646;2023-02-26T18:19:29;1.60;61.70
42141;DHT22;27809;51.864;5.646;2023-02-26T18:21:54;1.70;61.20
42141;DHT22;27809;51.864;5.646;2023-02-26T18:24:20;1.80;61.40
42141;DHT22;27809;51.864;5.646;2023-02-26T18:26:45;1.80;62.40
42141;DHT22;27809;51.864;5.646;2023-02-26T18:29:11;1.90;60.60
42141;DHT22;27809;51.864;5.646;2023-02-26T18:31:36;1.90;61.00
42141;DHT22;27809;51.864;5.646;2023-02-26T18:34:02;2.00;59.00